Terminal Aerodrome Forecast
Issued by NWS Twin Cities, MN

Home | Current Version | Previous Version | Text Only | Print | Product List | Glossary Off
Versions: 1 2 3 4 5 6 7 8 9 10 11 12 13 14 15 16 17

000
FTUS43 KMPX 290520
TAFSTC
TAF
KSTC 290520Z 2906/3006 31003KT P6SM OVC070
     FM290700 VRB03KT P6SM OVC025
     FM291000 VRB03KT 4SM BR OVC009
     FM291400 29009KT P6SM BKN035
     FM292000 27010G17KT P6SM SCT150
     FM300200 29006KT P6SM SKC=

USA.gov is the U.S. government's official web portal to all federal, state and local government web resources and services.